Cinnaminson Township, New Jersey
Current Conditions -  °F | °C
As of 3:21 AM on Tuesday 27 Jan 2015 (Local Time) from KPNE Reporting Station
Light Snow Light Snow  
Wind Chill: 16°   Ceiling: 2900
Heat Index: 26°   Visibility: 2.5mi
Dew Point: 18°   Wind: 12mph
Humidity: 71%   Direction: 350°N
Pressure: 29.72"   Gusts: NA
Location:  40.0002°N, 74.9938°W
Report Text: KPNE 270821Z AUTO 35010KT 2 1/2SM -SN BKN029 OVC037 M03/M08 A2972 RMK AO2 P0000 T10331078 TSNO
Loading
Personal Weather Stations






























Interactive Weather Map New forecast layout! Learn more

10-Day Weather Forecast

Advertisements
Track Severe Weather on mobile